首页
METAR-TAF:

METAR-TAF

机场 :

桂林兩江國際機場

桂林, 中华人民共和国

纬度: 25-20N, 经度: 110-18E, 海拔: 166米

当前天气观测

该预报发布于18分钟前的05:00 UTC
风速2节,风向多变
温度 17°C
湿度 82%
气压 1015 hPa
能見度: 3500
少量云层高于1000英尺
多云层高于2300英尺
阴天层高于3600英尺
轻雾

METAR: ZGKL 140500Z VRB01MPS 3500 BR FEW010 BKN023 OVC036 17/14 Q1015 NOSIG

时间: 13:18 (05:18 UTC)

预报

该预报发布于10小时和6分钟前的19:12 UTC
预报有效从14日的 00点(UTC)到 14日的 24点(UTC)
风速2节,风向多变
能見度: 4000
散云层高于2300英尺
阴天层高于4000英尺
轻雾

TAF: ZGKL 131912Z 1400/1424 VRB01MPS 4000 BR SCT023 OVC040 TX16/1407Z TN14/1422Z

超过4000个机场的气象观测和天气预报(METAR&TAF报告)。

可查询的气象台以黄色和红色小点在地图上表示。

将鼠标移到小点上方,可查看气象台名称。

然后点击查看天气观测和预报。

如需切换地图:点击带黑十字的绿色按钮放大地图;点击带横线的绿色按钮缩小地图;或者点击绿色箭头查看邻近地区的地图。


METAR-TAF: